CST,Max TemperatureF,Mean TemperatureF,Min TemperatureF,Max Dew PointF,MeanDew PointF,Min DewpointF,Max Humidity, Mean Humidity, Min Humidity, Max Sea Level PressureIn, Mean Sea Level PressureIn, Min Sea Level PressureIn, Max VisibilityMiles, Mean VisibilityMiles, Min VisibilityMiles, Max Wind SpeedMPH, Mean Wind SpeedMPH, Max Gust SpeedMPH,PrecipitationIn, CloudCover, Events, WindDirDegrees
2013-2-1,19,10,1,15,2,-4,84,71,62,30.40,30.30,30.20,10,10,2,22,15,28,0.00,5,Snow,251
2013-2-2,27,18,9,22,15,4,93,83,73,30.20,30.07,30.00,10,8,1,15,11,21,0.00,8,Snow,258
2013-2-3,24,18,11,20,14,6,95,80,68,30.08,30.03,29.97,10,8,2,17,7,26,0.00,7,Snow,259
2013-2-4,32,27,22,25,22,18,91,80,69,30.04,29.90,29.82,10,10,10,13,5,18,0.01,7,,47
2013-2-5,33,26,19,31,24,16,96,87,75,30.09,29.93,29.82,10,8,2,20,7,26,0.00,7,Snow,254
2013-2-6,39,30,22,29,25,19,89,76,60,30.26,30.17,30.10,10,10,7,13,4,20,0.00,3,,150
2013-2-7,43,37,31,39,33,28,100,91,71,30.14,29.97,29.84,10,5,0,16,7,22,0.31,7,Rain,119
2013-2-8,32,29,26,32,26,23,98,87,78,30.40,30.23,29.93,10,10,7,16,9,24,0.04,8,Snow,318
2013-2-9,36,32,27,29,25,20,90,77,70,30.40,30.29,30.09,10,10,10,14,5,18,0.00,5,,140
2013-2-10,47,40,32,46,37,26,97,89,72,30.10,29.78,29.55,10,9,4,26,13,39,0.14,6,Rain,155
2013-2-11,42,36,30,36,26,23,80,72,66,30.07,29.84,29.59,10,10,10,32,21,43,0.00,8,,256
2013-2-12,31,26,22,24,23,21,99,81,73,30.13,30.05,29.94,10,9,4,20,11,28,0.00,6,Thunderstorm,268
2013-2-13,44,32,21,33,28,21,99,85,60,29.93,29.81,29.74,10,8,2,15,5,21,0.00,1,,216
2013-2-14,40,36,32,34,31,26,92,82,70,30.00,29.83,29.70,10,10,10,24,11,32,0.00,7,,238
2013-2-15,32,28,23,29,19,11,93,67,42,30.18,30.12,29.99,10,10,3,15,7,25,0.00,5,Rain-Snow,299
2013-2-16,23,18,13,11,7,2,75,61,47,30.19,30.16,30.12,10,10,10,18,9,24,0.00,4,,315
2013-2-17,31,19,7,18,8,0,85,59,34,30.23,30.16,30.02,10,10,10,12,4,17,0.00,0,,166
2013-2-18,52,40,29,44,32,17,97,73,56,30.02,29.72,29.46,10,9,4,33,18,45,0.18,4,Rain-Snow,172
2013-2-19,28,20,12,25,11,6,88,74,68,30.20,29.93,29.65,10,10,7,33,26,40,0.00,8,Snow,272
2013-2-20,24,16,8,15,8,1,87,71,57,30.36,30.31,30.21,10,10,10,15,9,21,0.00,0,,305
2013-2-21,29,24,19,23,19,14,93,78,69,30.36,30.22,29.94,10,8,1,26,7,34,0.00,8,Snow,71
2013-2-22,33,29,25,32,27,22,100,90,73,29.96,29.88,29.82,10,6,0,21,14,26,0.13,8,Fog-Snow-Thunderstorm,186
2013-2-23,27,23,18,22,19,16,91,80,66,29.99,29.97,29.95,10,10,10,14,10,18,0.00,7,,245
2013-2-24,35,24,14,25,19,12,97,80,56,30.15,30.10,29.99,10,9,5,7,3,,0.00,0,,242
2013-2-25,42,32,21,29,26,20,97,80,58,30.17,30.08,29.91,10,9,5,16,6,23,0.00,0,,71
2013-2-26,33,32,32,32,30,25,100,91,72,29.90,29.59,29.47,10,6,0,28,16,34,0.35,7,Rain-Snow-Thunderstorm,42
2013-2-27,32,32,31,32,31,30,100,97,92,29.70,29.60,29.51,10,5,2,13,7,17,0.09,8,Rain-Snow,280
2013-2-28,36,33,30,31,29,23,96,85,74,30.06,29.91,29.71,10,10,5,13,9,20,0.00,8,Rain,333